Hanford Works, Washington
Current Conditions -  °F | °C
As of 12:53 PM on Tuesday 25 Nov 2014 (Local Time) from KPSC Reporting Station
Light Rain Light Rain  
Wind Chill: 41°   Ceiling: 1300
Heat Index: 45°   Visibility: 7mi
Dew Point: 43°   Wind: 7mph
Humidity: 93%   Direction: 330°NNW
Pressure: 30.24"   Gusts: NA
Location:  46.3844°N, 119.377°W
Report Text: KPSC 252053Z 33006KT 7SM -RA OVC013 07/06 A3024 RMK AO2 RAE00B26 SLP241 P0002 60002 T00720061 51020
Loading
Personal Weather Stations






























Interactive Weather Map New forecast layout! Learn more

10-Day Weather Forecast

Advertisements
Track Severe Weather on mobile